sensor_id;sensor_type;location;lat;lon;timestamp;P1;durP1;ratioP1;P2;durP2;ratioP2
17153;SDS011;8692;52.164;7.558;2023-04-24T00:01:41;1.60;;;1.50;;
17153;SDS011;8692;52.164;7.558;2023-04-24T00:04:09;1.77;;;1.30;;
17153;SDS011;8692;52.164;7.558;2023-04-24T00:06:44;3.80;;;1.30;;
17153;SDS011;8692;52.164;7.558;2023-04-24T00:09:15;1.63;;;1.40;;
17153;SDS011;8692;52.164;7.558;2023-04-24T00:11:44;1.57;;;1.30;;
17153;SDS011;8692;52.164;7.558;2023-04-24T00:14:12;1.50;;;1.40;;
17153;SDS011;8692;52.164;7.558;2023-04-24T00:16:40;1.80;;;1.70;;
17153;SDS011;8692;52.164;7.558;2023-04-24T00:19:08;1.57;;;1.47;;
17153;SDS011;8692;52.164;7.558;2023-04-24T00:21:38;3.07;;;2.00;;
17153;SDS011;8692;52.164;7.558;2023-04-24T00:24:10;2.03;;;1.80;;
17153;SDS011;8692;52.164;7.558;2023-04-24T00:26:39;2.17;;;1.97;;
17153;SDS011;8692;52.164;7.558;2023-04-24T00:29:07;2.87;;;2.07;;
17153;SDS011;8692;52.164;7.558;2023-04-24T00:31:37;2.40;;;2.20;;
17153;SDS011;8692;52.164;7.558;2023-04-24T00:34:06;3.17;;;2.17;;
17153;SDS011;8692;52.164;7.558;2023-04-24T00:36:34;2.60;;;2.40;;
17153;SDS011;8692;52.164;7.558;2023-04-24T00:39:03;2.40;;;2.20;;
17153;SDS011;8692;52.164;7.558;2023-04-24T00:41:32;2.70;;;2.47;;
17153;SDS011;8692;52.164;7.558;2023-04-24T00:44:00;3.20;;;2.40;;
17153;SDS011;8692;52.164;7.558;2023-04-24T00:46:28;3.80;;;2.60;;
17153;SDS011;8692;52.164;7.558;2023-04-24T00:48:58;3.10;;;2.80;;
17153;SDS011;8692;52.164;7.558;2023-04-24T00:51:29;3.00;;;2.80;;
17153;SDS011;8692;52.164;7.558;2023-04-24T00:54:01;3.07;;;2.63;;
17153;SDS011;8692;52.164;7.558;2023-04-24T00:56:29;3.40;;;2.90;;
17153;SDS011;8692;52.164;7.558;2023-04-24T00:59:02;4.77;;;2.67;;
17153;SDS011;8692;52.164;7.558;2023-04-24T01:01:31;3.10;;;2.80;;
17153;SDS011;8692;52.164;7.558;2023-04-24T01:04:00;2.87;;;2.53;;
17153;SDS011;8692;52.164;7.558;2023-04-24T01:06:31;3.17;;;2.87;;
17153;SDS011;8692;52.164;7.558;2023-04-24T01:08:59;4.13;;;2.80;;
17153;SDS011;8692;52.164;7.558;2023-04-24T01:11:31;2.83;;;2.57;;
17153;SDS011;8692;52.164;7.558;2023-04-24T01:14:03;2.93;;;2.73;;
17153;SDS011;8692;52.164;7.558;2023-04-24T01:16:31;3.03;;;2.73;;
17153;SDS011;8692;52.164;7.558;2023-04-24T01:19:00;5.03;;;3.20;;
17153;SDS011;8692;52.164;7.558;2023-04-24T01:21:30;3.93;;;3.63;;
17153;SDS011;8692;52.164;7.558;2023-04-24T01:24:03;2.83;;;2.63;;
17153;SDS011;8692;52.164;7.558;2023-04-24T01:26:32;4.37;;;2.60;;
17153;SDS011;8692;52.164;7.558;2023-04-24T01:29:02;2.60;;;2.40;;
17153;SDS011;8692;52.164;7.558;2023-04-24T01:31:30;3.23;;;2.53;;
17153;SDS011;8692;52.164;7.558;2023-04-24T01:34:03;2.63;;;2.43;;
17153;SDS011;8692;52.164;7.558;2023-04-24T01:36:32;2.97;;;2.00;;
17153;SDS011;8692;52.164;7.558;2023-04-24T01:39:03;2.33;;;2.13;;
17153;SDS011;8692;52.164;7.558;2023-04-24T01:41:32;2.53;;;2.33;;
17153;SDS011;8692;52.164;7.558;2023-04-24T01:44:03;3.93;;;2.40;;
17153;SDS011;8692;52.164;7.558;2023-04-24T01:46:31;3.73;;;2.53;;
17153;SDS011;8692;52.164;7.558;2023-04-24T01:49:03;3.63;;;3.00;;
17153;SDS011;8692;52.164;7.558;2023-04-24T01:51:31;4.00;;;3.27;;
17153;SDS011;8692;52.164;7.558;2023-04-24T01:54:00;3.37;;;3.03;;
17153;SDS011;8692;52.164;7.558;2023-04-24T01:56:29;5.03;;;2.80;;
17153;SDS011;8692;52.164;7.558;2023-04-24T01:58:57;3.80;;;3.00;;
17153;SDS011;8692;52.164;7.558;2023-04-24T02:01:27;3.63;;;3.23;;
17153;SDS011;8692;52.164;7.558;2023-04-24T02:04:00;3.67;;;2.80;;
17153;SDS011;8692;52.164;7.558;2023-04-24T02:06:28;2.93;;;2.67;;
17153;SDS011;8692;52.164;7.558;2023-04-24T02:08:59;3.93;;;2.90;;
17153;SDS011;8692;52.164;7.558;2023-04-24T02:11:29;3.10;;;2.63;;
17153;SDS011;8692;52.164;7.558;2023-04-24T02:14:00;3.77;;;2.80;;
17153;SDS011;8692;52.164;7.558;2023-04-24T02:16:28;2.80;;;2.60;;
17153;SDS011;8692;52.164;7.558;2023-04-24T02:19:01;3.57;;;2.73;;
17153;SDS011;8692;52.164;7.558;2023-04-24T02:21:29;3.07;;;2.23;;
17153;SDS011;8692;52.164;7.558;2023-04-24T02:23:58;3.30;;;2.83;;
17153;SDS011;8692;52.164;7.558;2023-04-24T02:26:29;4.13;;;3.00;;
17153;SDS011;8692;52.164;7.558;2023-04-24T02:28:58;3.90;;;2.80;;
17153;SDS011;8692;52.164;7.558;2023-04-24T02:31:28;3.37;;;3.07;;
17153;SDS011;8692;52.164;7.558;2023-04-24T02:33:59;3.77;;;3.10;;
17153;SDS011;8692;52.164;7.558;2023-04-24T02:36:29;5.63;;;2.70;;
17153;SDS011;8692;52.164;7.558;2023-04-24T02:39:00;2.93;;;2.70;;
17153;SDS011;8692;52.164;7.558;2023-04-24T02:41:30;3.10;;;2.80;;
17153;SDS011;8692;52.164;7.558;2023-04-24T02:44:01;3.70;;;3.17;;
17153;SDS011;8692;52.164;7.558;2023-04-24T02:46:29;3.83;;;2.90;;
17153;SDS011;8692;52.164;7.558;2023-04-24T02:48:57;3.00;;;2.80;;
17153;SDS011;8692;52.164;7.558;2023-04-24T02:51:25;3.07;;;2.77;;
17153;SDS011;8692;52.164;7.558;2023-04-24T02:53:54;3.03;;;2.70;;
17153;SDS011;8692;52.164;7.558;2023-04-24T02:56:22;4.23;;;2.93;;
17153;SDS011;8692;52.164;7.558;2023-04-24T02:58:52;5.03;;;2.70;;
17153;SDS011;8692;52.164;7.558;2023-04-24T03:01:20;3.33;;;2.57;;
17153;SDS011;8692;52.164;7.558;2023-04-24T03:03:48;4.00;;;2.93;;
17153;SDS011;8692;52.164;7.558;2023-04-24T03:06:17;4.43;;;3.87;;
17153;SDS011;8692;52.164;7.558;2023-04-24T03:08:45;5.43;;;3.40;;
17153;SDS011;8692;52.164;7.558;2023-04-24T03:11:13;5.27;;;3.67;;
17153;SDS011;8692;52.164;7.558;2023-04-24T03:13:41;3.50;;;3.20;;
17153;SDS011;8692;52.164;7.558;2023-04-24T03:16:10;5.47;;;3.83;;
17153;SDS011;8692;52.164;7.558;2023-04-24T03:18:39;5.23;;;4.13;;
17153;SDS011;8692;52.164;7.558;2023-04-24T03:21:08;5.37;;;4.07;;
17153;SDS011;8692;52.164;7.558;2023-04-24T03:23:36;5.30;;;4.33;;
17153;SDS011;8692;52.164;7.558;2023-04-24T03:26:04;5.40;;;4.37;;
17153;SDS011;8692;52.164;7.558;2023-04-24T03:28:34;6.87;;;4.77;;
17153;SDS011;8692;52.164;7.558;2023-04-24T03:31:03;7.13;;;4.97;;
17153;SDS011;8692;52.164;7.558;2023-04-24T03:33:37;8.40;;;5.23;;
17153;SDS011;8692;52.164;7.558;2023-04-24T03:36:06;6.37;;;5.27;;
17153;SDS011;8692;52.164;7.558;2023-04-24T03:38:38;6.00;;;4.80;;
17153;SDS011;8692;52.164;7.558;2023-04-24T03:41:25;7.83;;;5.77;;
17153;SDS011;8692;52.164;7.558;2023-04-24T03:44:00;8.63;;;5.80;;
17153;SDS011;8692;52.164;7.558;2023-04-24T03:46:29;7.17;;;5.73;;
17153;SDS011;8692;52.164;7.558;2023-04-24T03:49:01;7.10;;;6.50;;
17153;SDS011;8692;52.164;7.558;2023-04-24T03:51:34;8.77;;;6.73;;
17153;SDS011;8692;52.164;7.558;2023-04-24T03:54:11;9.47;;;7.50;;
17153;SDS011;8692;52.164;7.558;2023-04-24T03:56:40;9.93;;;6.97;;
17153;SDS011;8692;52.164;7.558;2023-04-24T03:59:08;7.77;;;6.87;;
17153;SDS011;8692;52.164;7.558;2023-04-24T04:01:38;9.33;;;7.97;;
17153;SDS011;8692;52.164;7.558;2023-04-24T04:04:17;9.33;;;8.43;;
17153;SDS011;8692;52.164;7.558;2023-04-24T04:06:46;10.47;;;8.87;;
17153;SDS011;8692;52.164;7.558;2023-04-24T04:09:17;12.43;;;9.97;;
17153;SDS011;8692;52.164;7.558;2023-04-24T04:11:45;12.30;;;10.57;;
17153;SDS011;8692;52.164;7.558;2023-04-24T04:14:14;13.87;;;11.00;;
17153;SDS011;8692;52.164;7.558;2023-04-24T04:16:46;11.67;;;10.50;;
17153;SDS011;8692;52.164;7.558;2023-04-24T04:19:18;14.23;;;10.20;;
17153;SDS011;8692;52.164;7.558;2023-04-24T04:21:46;12.67;;;11.47;;
17153;SDS011;8692;52.164;7.558;2023-04-24T04:24:25;13.10;;;11.90;;
17153;SDS011;8692;52.164;7.558;2023-04-24T04:26:53;12.00;;;10.73;;
17153;SDS011;8692;52.164;7.558;2023-04-24T04:29:28;16.73;;;11.43;;
17153;SDS011;8692;52.164;7.558;2023-04-24T04:31:58;13.10;;;11.73;;
17153;SDS011;8692;52.164;7.558;2023-04-24T04:34:28;13.00;;;11.63;;
17153;SDS011;8692;52.164;7.558;2023-04-24T04:37:00;14.03;;;11.73;;
17153;SDS011;8692;52.164;7.558;2023-04-24T04:39:41;13.30;;;11.90;;
17153;SDS011;8692;52.164;7.558;2023-04-24T04:42:18;13.20;;;11.80;;
17153;SDS011;8692;52.164;7.558;2023-04-24T04:44:46;13.70;;;11.20;;
17153;SDS011;8692;52.164;7.558;2023-04-24T04:47:18;12.80;;;11.53;;
17153;SDS011;8692;52.164;7.558;2023-04-24T04:49:51;14.07;;;10.83;;
17153;SDS011;8692;52.164;7.558;2023-04-24T04:52:23;15.83;;;11.70;;
17153;SDS011;8692;52.164;7.558;2023-04-24T04:55:05;11.47;;;9.97;;
17153;SDS011;8692;52.164;7.558;2023-04-24T04:57:57;12.73;;;10.43;;
17153;SDS011;8692;52.164;7.558;2023-04-24T05:00:26;12.53;;;9.57;;
17153;SDS011;8692;52.164;7.558;2023-04-24T05:02:57;13.63;;;10.03;;
17153;SDS011;8692;52.164;7.558;2023-04-24T05:05:50;11.73;;;9.47;;
17153;SDS011;8692;52.164;7.558;2023-04-24T05:08:21;11.73;;;9.67;;
17153;SDS011;8692;52.164;7.558;2023-04-24T05:10:54;14.63;;;10.70;;
17153;SDS011;8692;52.164;7.558;2023-04-24T05:13:25;11.67;;;9.67;;
17153;SDS011;8692;52.164;7.558;2023-04-24T05:16:07;13.00;;;9.40;;
17153;SDS011;8692;52.164;7.558;2023-04-24T05:18:39;16.00;;;10.60;;
17153;SDS011;8692;52.164;7.558;2023-04-24T05:21:12;13.20;;;11.63;;
17153;SDS011;8692;52.164;7.558;2023-04-24T05:23:43;12.73;;;11.37;;
17153;SDS011;8692;52.164;7.558;2023-04-24T05:26:17;12.67;;;11.47;;
17153;SDS011;8692;52.164;7.558;2023-04-24T05:28:45;13.10;;;11.63;;
17153;SDS011;8692;52.164;7.558;2023-04-24T05:31:15;17.40;;;12.23;;
17153;SDS011;8692;52.164;7.558;2023-04-24T05:33:44;13.87;;;12.37;;
17153;SDS011;8692;52.164;7.558;2023-04-24T05:36:16;16.57;;;12.37;;
17153;SDS011;8692;52.164;7.558;2023-04-24T05:38:44;15.27;;;13.20;;
17153;SDS011;8692;52.164;7.558;2023-04-24T05:41:20;14.67;;;13.00;;
17153;SDS011;8692;52.164;7.558;2023-04-24T05:43:55;16.23;;;13.63;;
17153;SDS011;8692;52.164;7.558;2023-04-24T05:46:23;19.40;;;13.87;;
17153;SDS011;8692;52.164;7.558;2023-04-24T05:48:51;18.70;;;14.83;;
17153;SDS011;8692;52.164;7.558;2023-04-24T05:51:23;17.43;;;14.00;;
17153;SDS011;8692;52.164;7.558;2023-04-24T05:56:28;16.63;;;13.73;;
17153;SDS011;8692;52.164;7.558;2023-04-24T05:58:59;16.00;;;13.13;;
17153;SDS011;8692;52.164;7.558;2023-04-24T06:01:30;16.57;;;13.73;;
17153;SDS011;8692;52.164;7.558;2023-04-24T06:04:08;17.47;;;12.77;;
17153;SDS011;8692;52.164;7.558;2023-04-24T06:06:44;14.43;;;12.90;;
17153;SDS011;8692;52.164;7.558;2023-04-24T06:09:14;17.23;;;12.77;;
17153;SDS011;8692;52.164;7.558;2023-04-24T06:11:43;16.00;;;12.73;;
17153;SDS011;8692;52.164;7.558;2023-04-24T06:14:22;17.47;;;12.07;;
17153;SDS011;8692;52.164;7.558;2023-04-24T06:17:10;14.17;;;10.87;;
17153;SDS011;8692;52.164;7.558;2023-04-24T06:19:40;12.37;;;11.07;;
17153;SDS011;8692;52.164;7.558;2023-04-24T06:22:10;12.17;;;10.90;;
17153;SDS011;8692;52.164;7.558;2023-04-24T06:24:39;17.53;;;12.80;;
17153;SDS011;8692;52.164;7.558;2023-04-24T06:27:10;14.13;;;11.57;;
17153;SDS011;8692;52.164;7.558;2023-04-24T06:29:41;12.10;;;10.77;;
17153;SDS011;8692;52.164;7.558;2023-04-24T06:32:09;11.63;;;10.43;;
17153;SDS011;8692;52.164;7.558;2023-04-24T06:34:37;14.57;;;10.93;;
17153;SDS011;8692;52.164;7.558;2023-04-24T06:37:10;15.10;;;12.23;;
17153;SDS011;8692;52.164;7.558;2023-04-24T06:39:38;12.80;;;11.47;;
17153;SDS011;8692;52.164;7.558;2023-04-24T06:42:08;12.07;;;10.87;;
17153;SDS011;8692;52.164;7.558;2023-04-24T06:44:37;12.33;;;11.13;;
17153;SDS011;8692;52.164;7.558;2023-04-24T06:47:10;14.20;;;11.63;;
17153;SDS011;8692;52.164;7.558;2023-04-24T06:49:39;14.07;;;10.87;;
17153;SDS011;8692;52.164;7.558;2023-04-24T06:52:10;14.63;;;11.10;;
17153;SDS011;8692;52.164;7.558;2023-04-24T06:54:38;12.30;;;10.87;;
17153;SDS011;8692;52.164;7.558;2023-04-24T06:57:06;10.97;;;9.87;;
17153;SDS011;8692;52.164;7.558;2023-04-24T06:59:36;10.60;;;9.57;;
17153;SDS011;8692;52.164;7.558;2023-04-24T07:02:07;12.20;;;9.80;;
17153;SDS011;8692;52.164;7.558;2023-04-24T07:04:36;10.83;;;8.87;;
17153;SDS011;8692;52.164;7.558;2023-04-24T07:07:04;10.73;;;9.30;;
17153;SDS011;8692;52.164;7.558;2023-04-24T07:09:34;11.60;;;8.10;;
17153;SDS011;8692;52.164;7.558;2023-04-24T07:12:05;10.07;;;9.07;;
17153;SDS011;8692;52.164;7.558;2023-04-24T07:14:33;9.10;;;7.87;;
17153;SDS011;8692;52.164;7.558;2023-04-24T07:17:02;9.43;;;7.77;;
17153;SDS011;8692;52.164;7.558;2023-04-24T07:19:30;9.77;;;6.43;;
17153;SDS011;8692;52.164;7.558;2023-04-24T07:21:58;7.23;;;6.57;;
17153;SDS011;8692;52.164;7.558;2023-04-24T07:24:27;7.20;;;5.83;;
17153;SDS011;8692;52.164;7.558;2023-04-24T07:27:00;9.03;;;6.60;;
17153;SDS011;8692;52.164;7.558;2023-04-24T07:29:28;9.30;;;6.27;;
17153;SDS011;8692;52.164;7.558;2023-04-24T07:31:56;7.17;;;6.20;;
17153;SDS011;8692;52.164;7.558;2023-04-24T07:34:30;9.93;;;6.30;;
17153;SDS011;8692;52.164;7.558;2023-04-24T07:37:01;8.30;;;6.73;;
17153;SDS011;8692;52.164;7.558;2023-04-24T07:39:31;7.10;;;5.93;;
17153;SDS011;8692;52.164;7.558;2023-04-24T07:42:01;7.83;;;7.03;;
17153;SDS011;8692;52.164;7.558;2023-04-24T07:44:29;9.17;;;7.43;;
17153;SDS011;8692;52.164;7.558;2023-04-24T07:46:58;7.80;;;7.00;;
17153;SDS011;8692;52.164;7.558;2023-04-24T07:49:29;8.70;;;7.90;;
17153;SDS011;8692;52.164;7.558;2023-04-24T07:51:57;11.03;;;7.73;;
17153;SDS011;8692;52.164;7.558;2023-04-24T07:54:26;9.97;;;9.00;;
17153;SDS011;8692;52.164;7.558;2023-04-24T07:56:55;9.80;;;8.83;;
17153;SDS011;8692;52.164;7.558;2023-04-24T07:59:27;10.00;;;9.10;;
17153;SDS011;8692;52.164;7.558;2023-04-24T08:01:55;10.30;;;9.30;;
17153;SDS011;8692;52.164;7.558;2023-04-24T08:04:23;10.57;;;9.63;;
17153;SDS011;8692;52.164;7.558;2023-04-24T08:06:54;9.70;;;8.90;;
17153;SDS011;8692;52.164;7.558;2023-04-24T08:09:24;10.30;;;9.40;;
17153;SDS011;8692;52.164;7.558;2023-04-24T08:11:53;11.03;;;9.97;;
17153;SDS011;8692;52.164;7.558;2023-04-24T08:14:24;8.80;;;8.10;;
17153;SDS011;8692;52.164;7.558;2023-04-24T08:16:56;9.40;;;8.47;;
17153;SDS011;8692;52.164;7.558;2023-04-24T08:19:26;11.10;;;9.90;;
17153;SDS011;8692;52.164;7.558;2023-04-24T08:21:54;9.07;;;8.27;;
17153;SDS011;8692;52.164;7.558;2023-04-24T08:24:25;9.40;;;8.50;;
17153;SDS011;8692;52.164;7.558;2023-04-24T08:26:55;8.90;;;8.13;;
17153;SDS011;8692;52.164;7.558;2023-04-24T08:29:26;9.40;;;8.50;;
17153;SDS011;8692;52.164;7.558;2023-04-24T08:31:56;9.43;;;7.90;;
17153;SDS011;8692;52.164;7.558;2023-04-24T08:34:27;8.37;;;7.53;;
17153;SDS011;8692;52.164;7.558;2023-04-24T08:36:57;8.73;;;7.93;;
17153;SDS011;8692;52.164;7.558;2023-04-24T08:39:31;8.97;;;8.07;;
17153;SDS011;8692;52.164;7.558;2023-04-24T08:42:02;9.63;;;7.30;;
17153;SDS011;8692;52.164;7.558;2023-04-24T08:44:37;7.83;;;7.10;;
17153;SDS011;8692;52.164;7.558;2023-04-24T08:47:09;7.00;;;6.40;;
17153;SDS011;8692;52.164;7.558;2023-04-24T08:49:41;7.03;;;6.43;;
17153;SDS011;8692;52.164;7.558;2023-04-24T08:52:13;6.90;;;6.30;;
17153;SDS011;8692;52.164;7.558;2023-04-24T08:54:46;7.17;;;6.43;;
17153;SDS011;8692;52.164;7.558;2023-04-24T08:57:15;7.30;;;6.50;;
17153;SDS011;8692;52.164;7.558;2023-04-24T08:59:44;7.37;;;6.63;;
17153;SDS011;8692;52.164;7.558;2023-04-24T09:02:16;7.17;;;6.57;;
17153;SDS011;8692;52.164;7.558;2023-04-24T09:04:45;7.20;;;6.60;;
17153;SDS011;8692;52.164;7.558;2023-04-24T09:07:17;7.53;;;6.83;;
17153;SDS011;8692;52.164;7.558;2023-04-24T09:09:49;7.30;;;6.63;;
17153;SDS011;8692;52.164;7.558;2023-04-24T09:12:20;5.80;;;5.30;;
17153;SDS011;8692;52.164;7.558;2023-04-24T09:14:49;5.43;;;4.93;;
17153;SDS011;8692;52.164;7.558;2023-04-24T09:17:23;5.40;;;4.90;;
17153;SDS011;8692;52.164;7.558;2023-04-24T09:19:53;4.40;;;4.00;;
17153;SDS011;8692;52.164;7.558;2023-04-24T09:22:22;5.03;;;4.53;;
17153;SDS011;8692;52.164;7.558;2023-04-24T09:24:59;5.87;;;4.30;;
17153;SDS011;8692;52.164;7.558;2023-04-24T09:27:32;4.73;;;3.67;;
17153;SDS011;8692;52.164;7.558;2023-04-24T09:30:00;3.77;;;3.47;;
17153;SDS011;8692;52.164;7.558;2023-04-24T09:32:34;5.33;;;3.60;;
17153;SDS011;8692;52.164;7.558;2023-04-24T09:35:09;3.70;;;3.40;;
17153;SDS011;8692;52.164;7.558;2023-04-24T09:37:38;4.33;;;3.50;;
17153;SDS011;8692;52.164;7.558;2023-04-24T09:40:12;3.67;;;3.37;;
17153;SDS011;8692;52.164;7.558;2023-04-24T09:42:45;7.63;;;3.13;;
17153;SDS011;8692;52.164;7.558;2023-04-24T09:45:19;4.43;;;3.63;;
17153;SDS011;8692;52.164;7.558;2023-04-24T09:47:52;4.40;;;4.00;;
17153;SDS011;8692;52.164;7.558;2023-04-24T09:50:21;4.87;;;3.37;;
17153;SDS011;8692;52.164;7.558;2023-04-24T09:52:55;4.70;;;4.00;;
17153;SDS011;8692;52.164;7.558;2023-04-24T09:55:25;3.40;;;3.10;;
17153;SDS011;8692;52.164;7.558;2023-04-24T09:57:56;3.70;;;3.40;;
17153;SDS011;8692;52.164;7.558;2023-04-24T10:00:29;6.63;;;4.10;;
17153;SDS011;8692;52.164;7.558;2023-04-24T10:03:00;3.87;;;3.57;;
17153;SDS011;8692;52.164;7.558;2023-04-24T10:05:30;3.20;;;2.90;;
17153;SDS011;8692;52.164;7.558;2023-04-24T10:08:11;2.73;;;2.53;;
17153;SDS011;8692;52.164;7.558;2023-04-24T10:10:41;3.57;;;2.57;;
17153;SDS011;8692;52.164;7.558;2023-04-24T10:13:10;3.17;;;2.47;;
17153;SDS011;8692;52.164;7.558;2023-04-24T10:15:42;3.17;;;2.70;;
17153;SDS011;8692;52.164;7.558;2023-04-24T10:18:20;3.07;;;2.70;;
17153;SDS011;8692;52.164;7.558;2023-04-24T10:20:48;3.43;;;2.73;;
17153;SDS011;8692;52.164;7.558;2023-04-24T10:23:19;2.87;;;2.63;;
17153;SDS011;8692;52.164;7.558;2023-04-24T10:25:47;2.97;;;2.67;;
17153;SDS011;8692;52.164;7.558;2023-04-24T10:28:18;4.47;;;2.87;;
17153;SDS011;8692;52.164;7.558;2023-04-24T10:30:50;3.13;;;2.83;;
17153;SDS011;8692;52.164;7.558;2023-04-24T10:33:23;5.53;;;3.47;;
17153;SDS011;8692;52.164;7.558;2023-04-24T10:35:53;4.03;;;3.63;;
17153;SDS011;8692;52.164;7.558;2023-04-24T10:38:25;4.60;;;3.50;;
17153;SDS011;8692;52.164;7.558;2023-04-24T10:40:57;4.57;;;3.57;;
17153;SDS011;8692;52.164;7.558;2023-04-24T10:43:35;3.27;;;2.97;;
17153;SDS011;8692;52.164;7.558;2023-04-24T10:46:04;4.67;;;4.13;;
17153;SDS011;8692;52.164;7.558;2023-04-24T10:48:37;6.57;;;4.30;;
17153;SDS011;8692;52.164;7.558;2023-04-24T10:51:11;9.13;;;5.10;;
17153;SDS011;8692;52.164;7.558;2023-04-24T10:53:40;5.83;;;5.23;;
17153;SDS011;8692;52.164;7.558;2023-04-24T10:56:08;5.90;;;5.20;;
17153;SDS011;8692;52.164;7.558;2023-04-24T10:58:38;5.83;;;5.20;;
17153;SDS011;8692;52.164;7.558;2023-04-24T11:01:22;11.10;;;5.80;;
17153;SDS011;8692;52.164;7.558;2023-04-24T11:03:57;8.97;;;5.33;;
17153;SDS011;8692;52.164;7.558;2023-04-24T11:06:29;7.63;;;5.37;;
17153;SDS011;8692;52.164;7.558;2023-04-24T11:09:01;6.90;;;4.70;;
17153;SDS011;8692;52.164;7.558;2023-04-24T11:11:34;5.47;;;4.50;;
17153;SDS011;8692;52.164;7.558;2023-04-24T11:14:04;5.97;;;5.00;;
17153;SDS011;8692;52.164;7.558;2023-04-24T11:16:42;7.20;;;4.93;;
17153;SDS011;8692;52.164;7.558;2023-04-24T11:19:23;6.33;;;5.60;;
17153;SDS011;8692;52.164;7.558;2023-04-24T11:21:57;6.93;;;4.80;;
17153;SDS011;8692;52.164;7.558;2023-04-24T11:24:31;5.67;;;4.87;;
17153;SDS011;8692;52.164;7.558;2023-04-24T11:27:11;6.17;;;4.93;;
17153;SDS011;8692;52.164;7.558;2023-04-24T11:29:42;6.00;;;5.10;;
17153;SDS011;8692;52.164;7.558;2023-04-24T11:32:14;7.30;;;5.63;;
17153;SDS011;8692;52.164;7.558;2023-04-24T11:42:18;8.90;;;5.30;;
17153;SDS011;8692;52.164;7.558;2023-04-24T11:44:51;7.23;;;5.53;;
17153;SDS011;8692;52.164;7.558;2023-04-24T11:47:19;9.13;;;5.43;;
17153;SDS011;8692;52.164;7.558;2023-04-24T11:49:50;8.23;;;5.80;;
17153;SDS011;8692;52.164;7.558;2023-04-24T11:52:19;9.07;;;5.57;;
17153;SDS011;8692;52.164;7.558;2023-04-24T11:54:49;7.33;;;4.67;;
17153;SDS011;8692;52.164;7.558;2023-04-24T11:57:18;4.53;;;4.13;;
17153;SDS011;8692;52.164;7.558;2023-04-24T11:59:51;4.17;;;3.77;;
17153;SDS011;8692;52.164;7.558;2023-04-24T12:02:22;4.53;;;3.07;;
17153;SDS011;8692;52.164;7.558;2023-04-24T12:04:53;3.93;;;2.60;;
17153;SDS011;8692;52.164;7.558;2023-04-24T12:07:23;5.43;;;2.63;;
17153;SDS011;8692;52.164;7.558;2023-04-24T12:09:57;5.83;;;3.30;;
17153;SDS011;8692;52.164;7.558;2023-04-24T12:12:27;5.63;;;2.40;;
17153;SDS011;8692;52.164;7.558;2023-04-24T12:14:58;6.17;;;2.70;;
17153;SDS011;8692;52.164;7.558;2023-04-24T12:17:27;5.93;;;2.70;;
17153;SDS011;8692;52.164;7.558;2023-04-24T12:19:57;9.00;;;2.50;;
17153;SDS011;8692;52.164;7.558;2023-04-24T12:22:27;7.13;;;2.70;;
17153;SDS011;8692;52.164;7.558;2023-04-24T12:25:00;9.37;;;3.20;;
17153;SDS011;8692;52.164;7.558;2023-04-24T12:27:32;5.97;;;2.23;;
17153;SDS011;8692;52.164;7.558;2023-04-24T12:30:03;5.33;;;3.47;;
17153;SDS011;8692;52.164;7.558;2023-04-24T12:32:35;7.00;;;2.97;;
17153;SDS011;8692;52.164;7.558;2023-04-24T12:35:10;10.10;;;3.37;;
17153;SDS011;8692;52.164;7.558;2023-04-24T12:37:42;12.17;;;4.03;;
17153;SDS011;8692;52.164;7.558;2023-04-24T12:40:14;8.50;;;3.50;;
17153;SDS011;8692;52.164;7.558;2023-04-24T12:42:44;9.27;;;3.53;;
17153;SDS011;8692;52.164;7.558;2023-04-24T12:45:13;8.50;;;4.13;;
17153;SDS011;8692;52.164;7.558;2023-04-24T12:47:43;13.60;;;3.20;;
17153;SDS011;8692;52.164;7.558;2023-04-24T12:50:15;4.53;;;2.93;;
17153;SDS011;8692;52.164;7.558;2023-04-24T12:52:47;5.63;;;3.60;;
17153;SDS011;8692;52.164;7.558;2023-04-24T12:55:18;7.10;;;3.17;;
17153;SDS011;8692;52.164;7.558;2023-04-24T12:57:47;9.17;;;3.30;;
17153;SDS011;8692;52.164;7.558;2023-04-24T13:00:15;7.13;;;2.97;;
17153;SDS011;8692;52.164;7.558;2023-04-24T13:02:45;7.87;;;3.20;;
17153;SDS011;8692;52.164;7.558;2023-04-24T13:05:14;6.07;;;2.63;;
17153;SDS011;8692;52.164;7.558;2023-04-24T13:07:44;7.00;;;3.40;;
17153;SDS011;8692;52.164;7.558;2023-04-24T13:10:15;4.77;;;2.73;;
17153;SDS011;8692;52.164;7.558;2023-04-24T13:12:44;8.27;;;3.17;;
17153;SDS011;8692;52.164;7.558;2023-04-24T13:15:12;4.43;;;2.53;;
17153;SDS011;8692;52.164;7.558;2023-04-24T13:17:41;6.53;;;2.77;;
17153;SDS011;8692;52.164;7.558;2023-04-24T13:20:11;5.50;;;3.07;;
17153;SDS011;8692;52.164;7.558;2023-04-24T13:22:39;8.70;;;3.20;;
17153;SDS011;8692;52.164;7.558;2023-04-24T13:25:08;4.97;;;3.23;;
17153;SDS011;8692;52.164;7.558;2023-04-24T13:27:37;14.40;;;3.40;;
17153;SDS011;8692;52.164;7.558;2023-04-24T13:30:08;7.97;;;3.03;;
17153;SDS011;8692;52.164;7.558;2023-04-24T13:32:37;9.20;;;3.60;;
17153;SDS011;8692;52.164;7.558;2023-04-24T13:35:06;4.53;;;2.93;;
17153;SDS011;8692;52.164;7.558;2023-04-24T13:37:35;7.23;;;3.70;;
17153;SDS011;8692;52.164;7.558;2023-04-24T13:40:03;9.93;;;3.83;;
17153;SDS011;8692;52.164;7.558;2023-04-24T13:42:33;5.30;;;3.17;;
17153;SDS011;8692;52.164;7.558;2023-04-24T13:45:01;7.00;;;3.73;;
17153;SDS011;8692;52.164;7.558;2023-04-24T13:47:51;5.97;;;3.27;;
17153;SDS011;8692;52.164;7.558;2023-04-24T13:50:22;8.27;;;3.37;;
17153;SDS011;8692;52.164;7.558;2023-04-24T13:52:51;9.57;;;3.80;;
17153;SDS011;8692;52.164;7.558;2023-04-24T13:55:21;5.00;;;3.23;;
17153;SDS011;8692;52.164;7.558;2023-04-24T13:57:50;7.80;;;3.20;;
17153;SDS011;8692;52.164;7.558;2023-04-24T14:00:23;4.87;;;2.93;;
17153;SDS011;8692;52.164;7.558;2023-04-24T14:02:53;4.77;;;3.03;;
17153;SDS011;8692;52.164;7.558;2023-04-24T14:05:22;5.20;;;2.97;;
17153;SDS011;8692;52.164;7.558;2023-04-24T14:07:53;5.93;;;2.93;;
17153;SDS011;8692;52.164;7.558;2023-04-24T14:10:22;6.83;;;3.00;;
17153;SDS011;8692;52.164;7.558;2023-04-24T14:12:50;5.57;;;2.53;;
17153;SDS011;8692;52.164;7.558;2023-04-24T14:15:19;4.30;;;2.70;;
17153;SDS011;8692;52.164;7.558;2023-04-24T14:17:47;5.13;;;3.03;;
17153;SDS011;8692;52.164;7.558;2023-04-24T14:20:18;3.97;;;1.93;;
17153;SDS011;8692;52.164;7.558;2023-04-24T14:22:46;3.90;;;2.20;;
17153;SDS011;8692;52.164;7.558;2023-04-24T14:25:14;4.17;;;2.07;;
17153;SDS011;8692;52.164;7.558;2023-04-24T14:27:42;3.10;;;1.90;;
17153;SDS011;8692;52.164;7.558;2023-04-24T14:30:11;5.07;;;2.00;;
17153;SDS011;8692;52.164;7.558;2023-04-24T14:32:40;2.67;;;1.50;;
17153;SDS011;8692;52.164;7.558;2023-04-24T14:35:08;4.47;;;1.70;;
17153;SDS011;8692;52.164;7.558;2023-04-24T14:37:38;2.00;;;1.33;;
17153;SDS011;8692;52.164;7.558;2023-04-24T14:40:08;4.33;;;1.67;;
17153;SDS011;8692;52.164;7.558;2023-04-24T14:42:59;2.73;;;1.70;;
17153;SDS011;8692;52.164;7.558;2023-04-24T14:45:27;3.93;;;1.53;;
17153;SDS011;8692;52.164;7.558;2023-04-24T14:47:57;2.10;;;1.30;;
17153;SDS011;8692;52.164;7.558;2023-04-24T14:50:25;2.47;;;1.70;;
17153;SDS011;8692;52.164;7.558;2023-04-24T14:52:56;2.63;;;1.03;;
17153;SDS011;8692;52.164;7.558;2023-04-24T14:55:27;1.37;;;0.97;;
17153;SDS011;8692;52.164;7.558;2023-04-24T14:57:55;1.37;;;1.00;;
17153;SDS011;8692;52.164;7.558;2023-04-24T15:00:23;3.27;;;1.23;;
17153;SDS011;8692;52.164;7.558;2023-04-24T15:02:51;2.00;;;1.20;;
17153;SDS011;8692;52.164;7.558;2023-04-24T15:05:21;2.80;;;1.60;;
17153;SDS011;8692;52.164;7.558;2023-04-24T15:07:55;2.23;;;1.43;;
17153;SDS011;8692;52.164;7.558;2023-04-24T15:10:23;2.47;;;1.60;;
17153;SDS011;8692;52.164;7.558;2023-04-24T15:12:52;4.70;;;1.63;;
17153;SDS011;8692;52.164;7.558;2023-04-24T15:15:20;1.60;;;1.47;;
17153;SDS011;8692;52.164;7.558;2023-04-24T15:17:48;3.90;;;1.47;;
17153;SDS011;8692;52.164;7.558;2023-04-24T15:20:16;2.57;;;1.40;;
17153;SDS011;8692;52.164;7.558;2023-04-24T15:22:45;2.90;;;1.27;;
17153;SDS011;8692;52.164;7.558;2023-04-24T15:25:15;2.00;;;1.40;;
17153;SDS011;8692;52.164;7.558;2023-04-24T15:27:45;2.80;;;1.43;;